Weather at Torrey Pines Gliderport

Public forecast

Using degrees Fahrenheit for public forecast. Weather courtesy of forecast.io.

Closest aviation weather report (METAR) to Torrey Pines Gliderport

Closest report is Miramar Marine Corps Air Station - Mitscher Field, 5.4 nm (10.0 km) ESE.

2024/07/24 19:55 (retrieved 58 minutes ago)

KNKX 241955Z 31008KT 9SM VCTS FEW050CB 28/18 A3003 RMK AO2 SLP164 T02830183

Closest aviation forecast (TAF) to Torrey Pines Gliderport

Closest forecast is Miramar Marine Corps Air Station - Mitscher Field, 5.4 nm (10.0 km) ESE.

2024/07/24 15:00 Ammendment (retrieved 6 hours ago)

TAF AMD KNKX 2415/2515 30008KT 9999 VCTS SCT050 QNH2995INS FM250300 VRB03KT 8000 BR BKN010 QNH2998INS T29/2421Z T20/2513Z AMD 1850